Fruitport, Michigan
Current Conditions -  °F | °C
As of 5:55 PM on Friday 28 Nov 2014 (Local Time) from KMKG Reporting Station
Overcast Overcast  
Wind Chill: 16°   Ceiling: 7000
Heat Index: 26°   Visibility: 10mi
Dew Point: 18°   Wind: 10mph
Humidity: 71%   Direction: 140°SE
Pressure: 30.04"   Gusts: NA
Location:  43.13°N, 86.15°W
Report Text: KMKG 282255Z 14009KT 10SM BKN070 OVC085 M03/M08 A3004 RMK AO2 SLP184 T10331078
Loading
Personal Weather Stations






























Interactive Weather Map New forecast layout! Learn more

10-Day Weather Forecast

Advertisements
Track Severe Weather on mobile